Pagina principală
METAR-TAF:

METAR-TAF

Aeroporturi :

Greenville, Mississippi, Statele Unite ale Americii

Latitudine: 33-28-58N, longitudine: 090-59-08W, elevație: 40 m

Observații meteo curente

Raportul a fost făcut în urmă cu 58 de minute, la 21:53 UTC
Vânt 3 kt de la Est/Sud-est
Temperatură 36°C
Umiditate 45%
Presiune 1015 hPa
Vizibilitate: 16.1 km
Cer senin

METAR: KGLH 222153Z 12003KT 10SM CLR 36/22 A2997 RMK AO2 SLP152 T03560222

Ora: 17:51 (22:51 UTC)

Prognoză

Raportul a fost făcut în urmă cu 5 ore și 31 de minute, la 17:20 UTC
Prognoză valabilă de la 22 ora 18 UTC la 23 ora 18 UTC
Vânt 5 kt de la Sud/Sud-vest
Vizibilitate: 10 km
Nori puțini la o înălțime de 25000 picior

TAF: KGLH 221720Z 2218/2318 20005KT P6SM FEW250

Observații și prognoze meteo pentru peste 4.000 de aeroporturi (rapoarte METAR și TAF).

Stațiile disponibile sunt reprezentate pe hartă prin puncte galbene și roșii.

Țineți indicatorul mouse-ului pe punctul dorit pentru a vedea denumirea stației.

Apoi, faceți clic pentru a vedea observațiile și prognozele meteorologice.

Pentru a schimba harta: Pentru mărire, faceți clic pe butoanele verzi cu cruce neagră; pentru micșorare, pe butonul verde cu o liniuță; pentru hărți învecinate, pe săgețile verzi.


METAR-TAF: